Flight Track Log - Related Links

Times and Time Zones

All times are in EDT time to prevent confusion due to time zone crossing. See the ASH2619 flight status page for this flight to view local times or setup timezone preferences in your user account.

Time Position Orientation Groundspeed Altitude Reporting Facility
EDT Latitude Longitude Course Direction KTS MPH feet Rate Location/Type
Mon 08:51:16 AM 40.6258 -75.4878 277° West 169 194 1,600  Level New York Center
Mon 08:52:17 AM 40.6175 -75.5364 257° West 183 211 3,700 1,967 Climbing New York Center
Mon 08:53:00 AM 40.6135 -75.9281 281° West  Level FlightAware Approximate
Mon 08:53:18 AM 40.5953 -75.6250 252° West 208 239 5,600  Level New York Center
Mon 08:54:00 AM 40.6518 -76.1019 287° West  Level FlightAware Approximate
Mon 08:54:16 AM 40.5875 -75.7092 263° West 247 284 8,500  Level New York Center
Mon 08:55:00 AM 40.6833 -76.2776 270° West  Level FlightAware Approximate
Mon 08:55:17 AM 40.6058 -75.8172 283° West 268 308 11,400  Level New York Center
Mon 08:56:00 AM 40.7093 -76.4515 277° West  Level FlightAware Approximate
Mon 08:56:17 AM 40.6244 -75.9197 283° West 279 321 13,700  Level New York Center
Mon 08:57:17 AM 40.6444 -76.0306 283° West 300 345 15,100 1,576 Climbing New York Center
Mon 08:58:15 AM 40.6658 -76.1553 283° West 336 387 16,800 1,831 Climbing New York Center
Mon 08:59:15 AM 40.6836 -76.2689 282° West 358 412 18,700 1,736 Climbing New York Center
Mon 09:00:16 AM 40.7044 -76.4022 282° West 363 418 20,300 1,686 Climbing New York Center
Mon 09:01:16 AM 40.7292 -76.5356 284° West 368 423 22,100 1,686 Climbing New York Center
Mon 09:02:17 AM 40.7517 -76.6744 282° West 379 436 23,700 1,488 Climbing New York Center
Mon 09:03:17 AM 40.7781 -76.8139 284° West 379 436 25,100 1,350 Climbing New York Center
Mon 09:04:17 AM 40.7975 -76.9581 280° West 389 448 26,400 1,271 Climbing New York Center
Mon 09:05:15 AM 40.8147 -77.1078 279° West 403 464 27,600 1,169 Climbing New York Center
Mon 09:06:15 AM 40.8339 -77.2550 280° West 416 479 28,700 1,100 Climbing New York Center
Mon 09:07:15 AM 40.8536 -77.4242 279° West 416 479 29,800 1,082 Climbing New York Center
Mon 09:08:17 AM 40.8700 -77.5769 278° West 421 484 30,900 1,149 Climbing New York Center
Mon 09:09:36 AM 40.8919 -77.7869 278° West 424 488 32,500 1,079 Climbing Cleveland Center
Mon 09:10:36 AM 40.8997 -77.9431 274° West 424 488 33,400 750 Climbing Cleveland Center
Mon 09:11:36 AM 40.8569 -78.0822 248° West 407 468 34,000 300 Climbing Cleveland Center
Mon 09:12:36 AM 40.7844 -78.1944 230° Southwest 391 450 34,000 200 Level Cleveland Center
Mon 09:13:36 AM 40.7117 -78.3094 230° Southwest 407 468 34,400 400 Climbing Cleveland Center
Mon 09:14:36 AM 40.6386 -78.4214 229° Southwest 412 474 34,800 450 Climbing Cleveland Center
Mon 09:15:36 AM 40.5617 -78.5389 229° Southwest 418 481 35,300 600 Climbing Cleveland Center
Mon 09:16:36 AM 40.4867 -78.6558 230° Southwest 418 481 36,000 350 Climbing Cleveland Center
Mon 09:17:36 AM 40.4092 -78.7725 229° Southwest 418 481 36,000  Level Cleveland Center
Mon 09:18:36 AM 40.3319 -78.8944 230° Southwest 428 493 36,000  Level Cleveland Center
Mon 09:19:36 AM 40.2503 -79.0189 229° Southwest 440 506 36,000  Level Cleveland Center
Mon 09:20:36 AM 40.1664 -79.1431 229° Southwest 450 518 36,000  Level Cleveland Center
Mon 09:21:36 AM 40.0806 -79.2753 230° Southwest 463 533 36,000  Level Cleveland Center
Mon 09:22:36 AM 40.0067 -79.3878 229° Southwest 464 534 36,000  Level Cleveland Center
Mon 09:23:36 AM 39.9203 -79.5139 228° Southwest 464 534 36,000  Level Cleveland Center
Mon 09:24:36 AM 39.8361 -79.6394 229° Southwest 464 534 36,000  Level Cleveland Center
Mon 09:25:36 AM 39.7536 -79.7622 229° Southwest 464 534 36,000  Level Cleveland Center
Mon 09:26:36 AM 39.6669 -79.8872 228° Southwest 464 534 36,000  Level Cleveland Center
Mon 09:27:36 AM 39.5842 -80.0119 229° Southwest 464 534 36,000  Level Cleveland Center
Mon 09:29:16 AM 39.4314 -80.2292 228° Southwest 481 554 36,000  Level Indianapolis Center
Mon 09:30:19 AM 39.3394 -80.3572 227° Southwest 486 559 36,000  Level Indianapolis Center
Mon 09:31:21 AM 39.2464 -80.4878 227° Southwest 492 566 36,000  Level Indianapolis Center
Mon 09:32:23 AM 39.1533 -80.6189 228° Southwest 494 568 36,000  Level Indianapolis Center
Mon 09:33:25 AM 39.0403 -80.7764 227° Southwest 497 572 36,000  Level Indianapolis Center
Mon 09:34:27 AM 38.9489 -80.9069 228° Southwest 492 566 36,000  Level Indianapolis Center
Mon 09:35:29 AM 38.8583 -81.0400 229° Southwest 493 567 36,000  Level Indianapolis Center
Mon 09:36:31 AM 38.7661 -81.1722 228° Southwest 494 568 36,000  Level Indianapolis Center
Mon 09:37:33 AM 38.6717 -81.3064 228° Southwest 498 573 36,000  Level Indianapolis Center
Mon 09:38:35 AM 38.5750 -81.4450 228° Southwest 506 582 36,000  Level Indianapolis Center
Mon 09:39:37 AM 38.4806 -81.5822 229° Southwest 501 577 36,000  Level Indianapolis Center
Mon 09:40:39 AM 38.3800 -81.7094 225° Southwest 506 582 36,000  Level Indianapolis Center
Mon 09:41:41 AM 38.2486 -81.7878 205° Southwest 525 604 36,000  Level Indianapolis Center
Mon 09:42:43 AM 38.0733 -81.8236 189° South 531 611 36,000  Level Indianapolis Center
Mon 09:43:45 AM 37.9269 -81.8506 188° South 531 611 36,000 -484 Level Indianapolis Center
Mon 09:44:47 AM 37.7731 -81.8800 189° South 533 613 35,000 -1,403 Descending Indianapolis Center
Mon 09:45:49 AM 37.6283 -81.9075 189° South 525 604 33,100 -1,839 Descending Indianapolis Center
Mon 09:46:51 AM 37.4881 -81.9331 188° South 510 587 31,200 -1,839 Descending Indianapolis Center
Mon 09:47:53 AM 37.3533 -81.9578 188° South 491 565 29,300 -1,548 Descending Indianapolis Center
Mon 09:48:55 AM 37.2269 -81.9819 189° South 463 533 28,000 -1,258 Descending Indianapolis Center
Mon 09:49:57 AM 37.0792 -82.0097 189° South 458 527 26,700 -1,548 Descending Indianapolis Center
Mon 09:50:59 AM 36.9511 -82.0128 181° South 468 539 24,800 -1,306 Descending Indianapolis Center
Mon 09:52:01 AM 36.8269 -81.9897 172° South 451 519 24,000 -387 Descending Indianapolis Center
Mon 09:53:03 AM 36.7089 -81.9489 165° South 440 506 24,000  Level Indianapolis Center
Mon 09:54:21 AM 36.5422 -81.8939 165° South 451 519 24,000  Level Atlanta Center
Mon 09:55:21 AM 36.4247 -81.8558 165° South 451 519 24,000 -700 Level Atlanta Center
Mon 09:56:21 AM 36.3031 -81.8153 165° South 446 513 22,600 -2,150 Descending Atlanta Center
Mon 09:57:21 AM 36.1792 -81.7750 165° South 458 527 19,700 -2,600 Descending Atlanta Center
Mon 09:58:21 AM 36.0617 -81.7347 165° South 446 513 17,400 -2,450 Descending Atlanta Center
Mon 09:59:21 AM 35.9525 -81.7019 166° South 419 482 14,800 -2,422 Descending Atlanta Center
Mon 10:00:10 AM 35.8686 -81.6736 165° South 384 442 13,000 -1,900 Descending Atlanta Center
Mon 10:01:21 AM 35.7531 -81.6358 165° South 370 426 11,000 -916 Descending Atlanta Center
Mon 10:02:21 AM 35.6792 -81.5922 154° Southeast 351 404 11,000  Level Atlanta Center
Mon 10:03:21 AM 35.6031 -81.5433 152° Southeast 316 364 11,000 -200 Level Atlanta Center
Mon 10:04:21 AM 35.5433 -81.4736 136° Southeast 300 345 10,600 -1,276 Descending Atlanta Center
Mon 10:05:28 AM 35.5197 -81.3519 103° East 311 358 8,300 -1,750 Descending Atlanta Center
Mon 10:06:21 AM 35.5036 -81.2733 104° East 292 336 7,100 -1,327 Descending Atlanta Center
Mon 10:07:21 AM 35.4844 -81.1644 102° East 292 336 5,800 -1,500 Descending Atlanta Center
Mon 10:08:21 AM 35.4697 -81.0731 101° East 287 330 4,100 -900 Descending Atlanta Center
Mon 10:09:21 AM 35.4408 -81.0078 118° Southeast 257 296 4,000 -451 Descending Atlanta Center
Mon 10:10:34 AM 35.3778 -80.9847 163° South 174 200 3,100 -533 Descending Atlanta Center
Mon 10:11:36 AM 35.3275 -80.9789 175° South 182 209 2,800 -537 Descending Atlanta Center
Mon 10:12:37 AM 35.2858 -80.9753 176° South 151 174 2,000 -787 Descending Atlanta Center
Mon 10:13:38 AM 35.2439 -80.9719 176° South 144 166 1,200 -787 Descending Atlanta Center
Mon 10:15:00 AM 35.2137 -80.9491 175° South  Level Estimated
Mon 10:22:00 AM 35.2137 -80.9491 39° Northeast  Level Estimated

Login

Don't have an account? Register now (free) for customized features, flight alerts, and more!